Time,TemperatureF,DewpointF,PressureIn,WindDirection,WindDirectionDegrees,WindSpeedMPH,WindSpeedGustMPH,Humidity,HourlyPrecipIn,Conditions,Clouds,dailyrainin,SoftwareType,DateUTC
2013-10-04 08:15:00,57.8,50.0,30.07,WNW,292,0.0,-999.0,76,-99.99,,,0.00,weatherlink.com 1.10,2013-10-04 12:15:00,
2013-10-04 08:20:00,58.1,51.0,30.07,WNW,292,0.0,-999.0,76,-99.99,,,0.00,weatherlink.com 1.10,2013-10-04 12:20:00,
2013-10-04 08:35:00,58.9,51.0,30.07,WNW,292,0.0,-999.0,76,-99.99,,,0.00,weatherlink.com 1.10,2013-10-04 12:35:00,
2013-10-04 08:51:00,59.6,52.0,30.07,WNW,292,0.0,-999.0,76,-99.99,,,0.00,weatherlink.com 1.10,2013-10-04 12:51:00,
2013-10-04 09:06:00,60.9,53.0,30.07,WNW,292,0.0,-999.0,76,-99.99,,,0.00,weatherlink.com 1.10,2013-10-04 13:06:00,
2013-10-04 09:21:00,62.0,55.0,30.07,WNW,292,0.0,-999.0,77,-99.99,,,0.00,weatherlink.com 1.10,2013-10-04 13:21:00,
2013-10-04 09:36:00,63.2,56.0,30.07,WNW,292,0.0,-999.0,78,-99.99,,,0.00,weatherlink.com 1.10,2013-10-04 13:36:00,
2013-10-04 09:51:00,64.2,58.0,30.07,WNW,292,0.0,-999.0,79,-99.99,,,0.05,weatherlink.com 1.10,2013-10-04 13:51:00,
2013-10-04 10:06:00,63.5,57.0,30.07,WNW,292,0.0,-999.0,78,-99.99,,,0.07,weatherlink.com 1.10,2013-10-04 14:06:00,
2013-10-04 10:21:00,63.2,56.0,30.07,WNW,292,0.0,-999.0,77,-99.99,,,0.07,weatherlink.com 1.10,2013-10-04 14:21:00,
2013-10-04 10:36:00,63.4,56.0,30.07,WNW,292,0.0,-999.0,76,-99.99,,,0.07,weatherlink.com 1.10,2013-10-04 14:36:00,
2013-10-04 10:51:00,63.8,56.0,30.06,WNW,292,0.0,-999.0,75,-99.99,,,0.07,weatherlink.com 1.10,2013-10-04 14:51:00,
2013-10-04 11:07:00,64.4,57.0,30.06,WNW,292,0.0,-999.0,76,-99.99,,,0.07,weatherlink.com 1.10,2013-10-04 15:07:00,
2013-10-04 11:22:00,65.5,57.0,30.05,WNW,292,0.0,-999.0,74,-99.99,,,0.07,weatherlink.com 1.10,2013-10-04 15:22:00,
2013-10-04 11:37:00,67.0,58.0,30.05,WNW,292,0.0,-999.0,73,-99.99,,,0.07,weatherlink.com 1.10,2013-10-04 15:37:00,
2013-10-04 11:52:00,69.0,60.0,30.04,WNW,292,0.0,-999.0,73,-99.99,,,0.07,weatherlink.com 1.10,2013-10-04 15:52:00,
2013-10-04 12:07:00,70.8,63.0,30.04,WNW,292,0.0,-999.0,77,-99.99,,,0.07,weatherlink.com 1.10,2013-10-04 16:07:00,
2013-10-04 12:22:00,72.1,65.0,30.04,WNW,292,0.0,-999.0,77,-99.99,,,0.07,weatherlink.com 1.10,2013-10-04 16:22:00,
2013-10-04 12:37:00,73.3,66.0,30.03,WNW,292,0.0,-999.0,78,-99.99,,,0.07,weatherlink.com 1.10,2013-10-04 16:37:00,
2013-10-04 12:52:00,74.1,67.0,30.02,WNW,292,0.0,-999.0,78,-99.99,,,0.07,weatherlink.com 1.10,2013-10-04 16:52:00,
2013-10-04 13:08:00,76.0,69.0,30.02,WNW,292,0.0,-999.0,78,-99.99,,,0.07,weatherlink.com 1.10,2013-10-04 17:08:00,
2013-10-04 13:23:00,77.3,69.0,30.01,WNW,292,0.0,-999.0,76,-99.99,,,0.07,weatherlink.com 1.10,2013-10-04 17:23:00,
2013-10-04 14:08:00,79.8,70.0,29.98,WNW,292,0.0,-999.0,73,-99.99,,,0.07,weatherlink.com 1.10,2013-10-04 18:08:00,
2013-10-04 14:23:00,79.6,70.0,29.98,WNW,292,0.0,-999.0,73,-99.99,,,0.07,weatherlink.com 1.10,2013-10-04 18:23:00,
2013-10-04 14:38:00,79.9,70.0,29.98,WNW,292,0.0,-999.0,72,-99.99,,,0.07,weatherlink.com 1.10,2013-10-04 18:38:00,
2013-10-04 14:53:00,79.7,69.0,29.98,WNW,292,0.0,-999.0,70,-99.99,,,0.07,weatherlink.com 1.10,2013-10-04 18:53:00,
2013-10-04 15:08:00,79.9,70.0,29.98,WNW,292,0.0,-999.0,72,-99.99,,,0.07,weatherlink.com 1.10,2013-10-04 19:08:00,
2013-10-04 15:23:00,79.9,70.0,29.98,WNW,292,0.0,-999.0,71,-99.99,,,0.07,weatherlink.com 1.10,2013-10-04 19:23:00,
2013-10-04 15:39:00,78.8,69.0,29.98,WNW,292,0.0,-999.0,73,-99.99,,,0.07,weatherlink.com 1.10,2013-10-04 19:39:00,
2013-10-04 15:54:00,78.6,70.0,29.98,WNW,292,0.0,-999.0,75,-99.99,,,0.07,weatherlink.com 1.10,2013-10-04 19:54:00,
2013-10-04 16:09:00,78.0,69.0,29.98,WNW,292,0.0,-999.0,74,-99.99,,,0.07,weatherlink.com 1.10,2013-10-04 20:09:00,
2013-10-04 16:24:00,77.8,69.0,29.98,WNW,292,0.0,-999.0,74,-99.99,,,0.07,weatherlink.com 1.10,2013-10-04 20:24:00,
2013-10-04 16:39:00,77.1,69.0,29.98,WNW,292,0.0,-999.0,75,-99.99,,,0.07,weatherlink.com 1.10,2013-10-04 20:39:00,
2013-10-04 16:54:00,77.1,69.0,29.98,WNW,292,0.0,-999.0,76,-99.99,,,0.07,weatherlink.com 1.10,2013-10-04 20:54:00,
2013-10-04 17:09:00,76.9,69.0,29.99,WNW,292,0.0,-999.0,76,-99.99,,,0.07,weatherlink.com 1.10,2013-10-04 21:09:00,
2013-10-04 17:24:00,77.0,69.0,29.99,WNW,292,0.0,-999.0,76,-99.99,,,0.07,weatherlink.com 1.10,2013-10-04 21:24:00,
2013-10-04 17:39:00,76.6,69.0,29.99,WNW,292,0.0,-999.0,76,-99.99,,,0.07,weatherlink.com 1.10,2013-10-04 21:39:00,
2013-10-04 17:54:00,75.9,68.0,29.99,WNW,292,0.0,-999.0,77,-99.99,,,0.07,weatherlink.com 1.10,2013-10-04 21:54:00,
2013-10-04 18:09:00,74.5,68.0,29.99,WNW,292,0.0,-999.0,79,-99.99,,,0.07,weatherlink.com 1.10,2013-10-04 22:09:00,
2013-10-04 18:24:00,73.4,67.0,30.00,WNW,292,0.0,-999.0,79,-99.99,,,0.07,weatherlink.com 1.10,2013-10-04 22:24:00,
2013-10-04 18:39:00,72.8,66.0,30.00,WNW,292,0.0,-999.0,79,-99.99,,,0.07,weatherlink.com 1.10,2013-10-04 22:39:00,
2013-10-04 18:55:00,72.3,65.0,30.01,WNW,292,0.0,-999.0,79,-99.99,,,0.07,weatherlink.com 1.10,2013-10-04 22:55:00,
2013-10-04 19:10:00,72.0,65.0,30.02,WNW,292,0.0,-999.0,79,-99.99,,,0.07,weatherlink.com 1.10,2013-10-04 23:10:00,
2013-10-04 19:25:00,71.7,65.0,30.02,WNW,292,0.0,-999.0,79,-99.99,,,0.07,weatherlink.com 1.10,2013-10-04 23:25:00,
2013-10-04 19:40:00,71.2,64.0,30.02,WNW,292,0.0,-999.0,79,-99.99,,,0.07,weatherlink.com 1.10,2013-10-04 23:40:00,
2013-10-04 19:55:00,70.5,64.0,30.02,WNW,292,0.0,-999.0,79,-99.99,,,0.07,weatherlink.com 1.10,2013-10-04 23:55:00,
2013-10-04 20:10:00,69.8,63.0,30.02,WNW,292,0.0,-999.0,79,-99.99,,,0.07,weatherlink.com 1.10,2013-10-05 00:10:00,
2013-10-04 20:25:00,69.0,62.0,30.03,NE,40,0.0,-999.0,79,-99.99,,,0.07,weatherlink.com 1.10,2013-10-05 00:25:00,
2013-10-04 20:40:00,68.3,62.0,30.03,NE,40,0.0,-999.0,79,-99.99,,,0.07,weatherlink.com 1.10,2013-10-05 00:40:00,
2013-10-04 20:55:00,67.7,61.0,30.04,NE,40,0.0,-999.0,80,-99.99,,,0.07,weatherlink.com 1.10,2013-10-05 00:55:00,
2013-10-04 21:42:00,66.4,60.0,30.04,NE,51,0.0,-999.0,80,-99.99,,,0.07,weatherlink.com 1.10,2013-10-05 01:42:00,
2013-10-04 21:55:00,66.2,60.0,30.04,NE,51,0.0,-999.0,80,-99.99,,,0.07,weatherlink.com 1.10,2013-10-05 01:55:00,